sensor_id;sensor_type;location;lat;lon;timestamp;temperature;humidity
3602;DHT22;1815;50.950;6.920;2023-02-28T00:01:27;3.00;76.70
3602;DHT22;1815;50.950;6.920;2023-02-28T00:03:53;2.90;76.60
3602;DHT22;1815;50.950;6.920;2023-02-28T00:06:18;2.90;77.10
3602;DHT22;1815;50.950;6.920;2023-02-28T00:08:44;2.90;76.70
3602;DHT22;1815;50.950;6.920;2023-02-28T00:11:34;2.90;76.50
3602;DHT22;1815;50.950;6.920;2023-02-28T00:14:00;2.90;77.60
3602;DHT22;1815;50.950;6.920;2023-02-28T00:16:26;2.90;77.10
3602;DHT22;1815;50.950;6.920;2023-02-28T00:18:52;2.90;77.50
3602;DHT22;1815;50.950;6.920;2023-02-28T00:21:19;2.90;77.30
3602;DHT22;1815;50.950;6.920;2023-02-28T00:23:45;2.90;78.40
3602;DHT22;1815;50.950;6.920;2023-02-28T00:26:11;2.90;77.50
3602;DHT22;1815;50.950;6.920;2023-02-28T00:28:37;2.90;77.50
3602;DHT22;1815;50.950;6.920;2023-02-28T00:31:03;2.90;77.60
3602;DHT22;1815;50.950;6.920;2023-02-28T00:33:29;2.90;77.50
3602;DHT22;1815;50.950;6.920;2023-02-28T00:36:04;2.90;77.80
3602;DHT22;1815;50.950;6.920;2023-02-28T00:38:30;2.90;78.50
3602;DHT22;1815;50.950;6.920;2023-02-28T00:40:56;2.80;78.20
3602;DHT22;1815;50.950;6.920;2023-02-28T00:43:21;2.80;78.20
3602;DHT22;1815;50.950;6.920;2023-02-28T00:45:47;2.80;78.30
3602;DHT22;1815;50.950;6.920;2023-02-28T00:48:13;2.70;79.10
3602;DHT22;1815;50.950;6.920;2023-02-28T00:50:38;2.70;79.10
3602;DHT22;1815;50.950;6.920;2023-02-28T00:53:04;2.70;79.30
3602;DHT22;1815;50.950;6.920;2023-02-28T00:55:30;2.70;79.30
3602;DHT22;1815;50.950;6.920;2023-02-28T00:57:55;2.70;79.50
3602;DHT22;1815;50.950;6.920;2023-02-28T01:00:21;2.60;79.60
3602;DHT22;1815;50.950;6.920;2023-02-28T01:02:49;2.60;80.20
3602;DHT22;1815;50.950;6.920;2023-02-28T01:05:15;2.60;80.40
3602;DHT22;1815;50.950;6.920;2023-02-28T01:07:41;2.60;81.10
3602;DHT22;1815;50.950;6.920;2023-02-28T01:10:07;2.60;81.30
3602;DHT22;1815;50.950;6.920;2023-02-28T01:12:33;2.60;81.00
3602;DHT22;1815;50.950;6.920;2023-02-28T01:14:58;2.60;81.10
3602;DHT22;1815;50.950;6.920;2023-02-28T01:17:24;2.60;81.30
3602;DHT22;1815;50.950;6.920;2023-02-28T01:19:54;2.60;81.70
3602;DHT22;1815;50.950;6.920;2023-02-28T01:22:20;2.60;81.90
3602;DHT22;1815;50.950;6.920;2023-02-28T01:24:46;2.60;82.10
3602;DHT22;1815;50.950;6.920;2023-02-28T01:27:12;2.60;81.90
3602;DHT22;1815;50.950;6.920;2023-02-28T01:29:37;2.60;82.10
3602;DHT22;1815;50.950;6.920;2023-02-28T01:32:03;2.60;82.30
3602;DHT22;1815;50.950;6.920;2023-02-28T01:34:29;2.60;82.10
3602;DHT22;1815;50.950;6.920;2023-02-28T01:36:54;2.60;82.30
3602;DHT22;1815;50.950;6.920;2023-02-28T01:39:20;2.60;82.40
3602;DHT22;1815;50.950;6.920;2023-02-28T01:41:47;2.60;82.90
3602;DHT22;1815;50.950;6.920;2023-02-28T01:47:16;2.60;83.50
3602;DHT22;1815;50.950;6.920;2023-02-28T01:49:41;2.60;82.70
3602;DHT22;1815;50.950;6.920;2023-02-28T01:52:08;2.60;83.40
3602;DHT22;1815;50.950;6.920;2023-02-28T01:54:51;2.50;83.70
3602;DHT22;1815;50.950;6.920;2023-02-28T01:57:21;2.50;83.70
3602;DHT22;1815;50.950;6.920;2023-02-28T01:59:51;2.50;84.20
3602;DHT22;1815;50.950;6.920;2023-02-28T02:02:21;2.50;84.20
3602;DHT22;1815;50.950;6.920;2023-02-28T02:05:18;2.50;84.40
3602;DHT22;1815;50.950;6.920;2023-02-28T02:07:47;2.40;84.60
3602;DHT22;1815;50.950;6.920;2023-02-28T02:10:20;2.40;85.80
3602;DHT22;1815;50.950;6.920;2023-02-28T02:15:32;2.40;86.30
3602;DHT22;1815;50.950;6.920;2023-02-28T02:18:07;2.40;86.00
3602;DHT22;1815;50.950;6.920;2023-02-28T02:26:25;2.40;86.40
3602;DHT22;1815;50.950;6.920;2023-02-28T02:37:11;2.30;86.70
3602;DHT22;1815;50.950;6.920;2023-02-28T02:40:02;2.40;86.70
3602;DHT22;1815;50.950;6.920;2023-02-28T02:45:26;2.30;86.70
3602;DHT22;1815;50.950;6.920;2023-02-28T02:47:56;2.30;87.50
3602;DHT22;1815;50.950;6.920;2023-02-28T02:50:33;2.30;86.70
3602;DHT22;1815;50.950;6.920;2023-02-28T02:53:02;2.30;87.20
3602;DHT22;1815;50.950;6.920;2023-02-28T02:55:36;2.30;86.70
3602;DHT22;1815;50.950;6.920;2023-02-28T02:58:05;2.30;86.70
3602;DHT22;1815;50.950;6.920;2023-02-28T03:00:43;2.30;86.70
3602;DHT22;1815;50.950;6.920;2023-02-28T03:03:12;2.30;86.70
3602;DHT22;1815;50.950;6.920;2023-02-28T03:05:49;2.30;87.20
3602;DHT22;1815;50.950;6.920;2023-02-28T03:08:15;2.30;87.50
3602;DHT22;1815;50.950;6.920;2023-02-28T03:10:46;2.20;87.20
3602;DHT22;1815;50.950;6.920;2023-02-28T03:22:14;2.30;86.70
3602;DHT22;1815;50.950;6.920;2023-02-28T03:32:53;2.20;86.30
3602;DHT22;1815;50.950;6.920;2023-02-28T03:35:23;2.20;86.30
3602;DHT22;1815;50.950;6.920;2023-02-28T03:37:53;2.10;86.20
3602;DHT22;1815;50.950;6.920;2023-02-28T03:40:23;2.20;86.40
3602;DHT22;1815;50.950;6.920;2023-02-28T03:42:54;2.20;87.30
3602;DHT22;1815;50.950;6.920;2023-02-28T03:45:25;2.20;86.70
3602;DHT22;1815;50.950;6.920;2023-02-28T03:47:59;2.20;86.80
3602;DHT22;1815;50.950;6.920;2023-02-28T03:50:36;2.20;86.70
3602;DHT22;1815;50.950;6.920;2023-02-28T03:53:15;2.20;86.90
3602;DHT22;1815;50.950;6.920;2023-02-28T03:55:47;2.20;86.80
3602;DHT22;1815;50.950;6.920;2023-02-28T03:58:22;2.10;86.80
3602;DHT22;1815;50.950;6.920;2023-02-28T04:01:18;2.20;87.10
3602;DHT22;1815;50.950;6.920;2023-02-28T04:03:45;2.10;87.10
3602;DHT22;1815;50.950;6.920;2023-02-28T04:06:18;2.10;86.70
3602;DHT22;1815;50.950;6.920;2023-02-28T04:08:44;2.10;87.80
3602;DHT22;1815;50.950;6.920;2023-02-28T04:13:44;2.00;87.60
3602;DHT22;1815;50.950;6.920;2023-02-28T04:16:10;2.00;87.40
3602;DHT22;1815;50.950;6.920;2023-02-28T04:18:39;2.00;87.80
3602;DHT22;1815;50.950;6.920;2023-02-28T04:21:06;2.00;88.00
3602;DHT22;1815;50.950;6.920;2023-02-28T04:23:32;1.90;88.50
3602;DHT22;1815;50.950;6.920;2023-02-28T04:25:58;1.90;89.30
3602;DHT22;1815;50.950;6.920;2023-02-28T04:28:24;1.90;88.90
3602;DHT22;1815;50.950;6.920;2023-02-28T04:30:57;1.80;89.50
3602;DHT22;1815;50.950;6.920;2023-02-28T04:33:23;1.80;89.40
3602;DHT22;1815;50.950;6.920;2023-02-28T04:36:01;1.80;89.00
3602;DHT22;1815;50.950;6.920;2023-02-28T04:38:29;1.80;89.40
3602;DHT22;1815;50.950;6.920;2023-02-28T04:40:57;1.80;89.30
3602;DHT22;1815;50.950;6.920;2023-02-28T04:43:23;1.70;90.10
3602;DHT22;1815;50.950;6.920;2023-02-28T04:45:48;1.70;89.60
3602;DHT22;1815;50.950;6.920;2023-02-28T04:48:14;1.70;90.10
3602;DHT22;1815;50.950;6.920;2023-02-28T04:50:40;1.70;90.00
3602;DHT22;1815;50.950;6.920;2023-02-28T04:53:05;1.70;90.10
3602;DHT22;1815;50.950;6.920;2023-02-28T04:55:31;1.70;90.30
3602;DHT22;1815;50.950;6.920;2023-02-28T04:57:57;1.70;90.70
3602;DHT22;1815;50.950;6.920;2023-02-28T05:00:23;1.70;90.50
3602;DHT22;1815;50.950;6.920;2023-02-28T05:02:49;1.70;90.50
3602;DHT22;1815;50.950;6.920;2023-02-28T05:05:15;1.70;90.50
3602;DHT22;1815;50.950;6.920;2023-02-28T05:07:44;1.70;90.70
3602;DHT22;1815;50.950;6.920;2023-02-28T05:10:10;1.70;90.70
3602;DHT22;1815;50.950;6.920;2023-02-28T05:12:36;1.70;90.50
3602;DHT22;1815;50.950;6.920;2023-02-28T05:15:03;1.70;90.50
3602;DHT22;1815;50.950;6.920;2023-02-28T05:17:30;1.70;90.40
3602;DHT22;1815;50.950;6.920;2023-02-28T05:19:56;1.70;90.80
3602;DHT22;1815;50.950;6.920;2023-02-28T05:22:22;1.70;90.60
3602;DHT22;1815;50.950;6.920;2023-02-28T05:24:48;1.70;91.30
3602;DHT22;1815;50.950;6.920;2023-02-28T05:27:13;1.70;90.80
3602;DHT22;1815;50.950;6.920;2023-02-28T05:29:39;1.70;90.80
3602;DHT22;1815;50.950;6.920;2023-02-28T05:32:11;1.70;91.10
3602;DHT22;1815;50.950;6.920;2023-02-28T05:34:38;1.70;90.70
3602;DHT22;1815;50.950;6.920;2023-02-28T05:37:05;1.70;90.90
3602;DHT22;1815;50.950;6.920;2023-02-28T05:39:30;1.70;90.90
3602;DHT22;1815;50.950;6.920;2023-02-28T05:41:56;1.70;90.80
3602;DHT22;1815;50.950;6.920;2023-02-28T05:44:22;1.60;91.20
3602;DHT22;1815;50.950;6.920;2023-02-28T05:46:48;1.70;91.00
3602;DHT22;1815;50.950;6.920;2023-02-28T05:49:13;1.60;91.10
3602;DHT22;1815;50.950;6.920;2023-02-28T05:51:39;1.60;91.10
3602;DHT22;1815;50.950;6.920;2023-02-28T05:54:06;1.60;91.40
3602;DHT22;1815;50.950;6.920;2023-02-28T05:56:32;1.60;91.00
3602;DHT22;1815;50.950;6.920;2023-02-28T05:58:59;1.70;91.00
3602;DHT22;1815;50.950;6.920;2023-02-28T06:01:36;1.70;91.70
3602;DHT22;1815;50.950;6.920;2023-02-28T06:04:04;1.70;91.30
3602;DHT22;1815;50.950;6.920;2023-02-28T06:06:30;1.70;91.10
3602;DHT22;1815;50.950;6.920;2023-02-28T06:08:57;1.70;91.10
3602;DHT22;1815;50.950;6.920;2023-02-28T06:11:23;1.70;91.00
3602;DHT22;1815;50.950;6.920;2023-02-28T06:13:59;1.70;90.90
3602;DHT22;1815;50.950;6.920;2023-02-28T06:16:28;1.80;90.90
3602;DHT22;1815;50.950;6.920;2023-02-28T06:18:54;1.80;90.80
3602;DHT22;1815;50.950;6.920;2023-02-28T06:21:22;1.80;90.80
3602;DHT22;1815;50.950;6.920;2023-02-28T06:23:48;1.80;90.80
3602;DHT22;1815;50.950;6.920;2023-02-28T06:26:14;1.80;90.70
3602;DHT22;1815;50.950;6.920;2023-02-28T06:28:39;1.80;90.70
3602;DHT22;1815;50.950;6.920;2023-02-28T06:31:09;1.80;90.60
3602;DHT22;1815;50.950;6.920;2023-02-28T06:33:37;1.80;90.70
3602;DHT22;1815;50.950;6.920;2023-02-28T06:36:03;1.90;90.70
3602;DHT22;1815;50.950;6.920;2023-02-28T06:38:30;1.90;90.70
3602;DHT22;1815;50.950;6.920;2023-02-28T06:40:57;1.90;90.90
3602;DHT22;1815;50.950;6.920;2023-02-28T06:43:25;1.90;90.80
3602;DHT22;1815;50.950;6.920;2023-02-28T06:45:55;1.90;90.90
3602;DHT22;1815;50.950;6.920;2023-02-28T06:48:21;1.90;90.80
3602;DHT22;1815;50.950;6.920;2023-02-28T06:50:47;2.00;90.90
3602;DHT22;1815;50.950;6.920;2023-02-28T06:53:13;2.00;90.90
3602;DHT22;1815;50.950;6.920;2023-02-28T06:55:39;2.00;91.00
3602;DHT22;1815;50.950;6.920;2023-02-28T06:58:05;2.00;90.90
3602;DHT22;1815;50.950;6.920;2023-02-28T07:00:44;2.00;90.90
3602;DHT22;1815;50.950;6.920;2023-02-28T07:03:11;2.00;90.90
3602;DHT22;1815;50.950;6.920;2023-02-28T07:05:38;2.10;90.80
3602;DHT22;1815;50.950;6.920;2023-02-28T07:08:05;2.10;90.80
3602;DHT22;1815;50.950;6.920;2023-02-28T07:10:32;2.10;90.80
3602;DHT22;1815;50.950;6.920;2023-02-28T07:12:59;2.20;90.80
3602;DHT22;1815;50.950;6.920;2023-02-28T07:15:25;2.20;90.80
3602;DHT22;1815;50.950;6.920;2023-02-28T07:17:50;2.20;90.70
3602;DHT22;1815;50.950;6.920;2023-02-28T07:20:16;2.30;90.80
3602;DHT22;1815;50.950;6.920;2023-02-28T07:22:42;2.30;90.80
3602;DHT22;1815;50.950;6.920;2023-02-28T07:25:09;2.30;90.70
3602;DHT22;1815;50.950;6.920;2023-02-28T07:27:34;2.40;91.00
3602;DHT22;1815;50.950;6.920;2023-02-28T07:30:01;2.40;90.70
3602;DHT22;1815;50.950;6.920;2023-02-28T07:32:30;2.40;90.60
3602;DHT22;1815;50.950;6.920;2023-02-28T07:34:56;2.50;90.60
3602;DHT22;1815;50.950;6.920;2023-02-28T07:37:21;2.50;90.30
3602;DHT22;1815;50.950;6.920;2023-02-28T07:39:47;2.50;90.40
3602;DHT22;1815;50.950;6.920;2023-02-28T07:42:13;2.60;90.50
3602;DHT22;1815;50.950;6.920;2023-02-28T07:44:39;2.70;90.30
3602;DHT22;1815;50.950;6.920;2023-02-28T07:47:09;2.70;90.30
3602;DHT22;1815;50.950;6.920;2023-02-28T07:49:36;2.80;90.40
3602;DHT22;1815;50.950;6.920;2023-02-28T07:52:04;2.80;90.40
3602;DHT22;1815;50.950;6.920;2023-02-28T07:54:30;2.90;89.90
3602;DHT22;1815;50.950;6.920;2023-02-28T07:56:56;3.00;90.00
3602;DHT22;1815;50.950;6.920;2023-02-28T07:59:21;3.00;90.40
3602;DHT22;1815;50.950;6.920;2023-02-28T08:01:47;3.10;89.70
3602;DHT22;1815;50.950;6.920;2023-02-28T08:04:17;3.20;89.40
3602;DHT22;1815;50.950;6.920;2023-02-28T08:06:43;3.20;89.30
3602;DHT22;1815;50.950;6.920;2023-02-28T08:09:09;3.30;88.60
3602;DHT22;1815;50.950;6.920;2023-02-28T08:11:34;3.40;88.30
3602;DHT22;1815;50.950;6.920;2023-02-28T08:14:00;3.50;88.40
3602;DHT22;1815;50.950;6.920;2023-02-28T08:16:26;3.50;88.20
3602;DHT22;1815;50.950;6.920;2023-02-28T08:18:52;3.60;88.20
3602;DHT22;1815;50.950;6.920;2023-02-28T08:21:19;3.70;86.10
3602;DHT22;1815;50.950;6.920;2023-02-28T08:23:50;3.80;87.80
3602;DHT22;1815;50.950;6.920;2023-02-28T08:26:17;4.00;87.10
3602;DHT22;1815;50.950;6.920;2023-02-28T08:28:43;4.20;87.60
3602;DHT22;1815;50.950;6.920;2023-02-28T08:31:12;4.70;89.60
3602;DHT22;1815;50.950;6.920;2023-02-28T08:33:39;5.40;90.50
3602;DHT22;1815;50.950;6.920;2023-02-28T08:36:06;6.30;88.90
3602;DHT22;1815;50.950;6.920;2023-02-28T08:38:31;7.50;91.40
3602;DHT22;1815;50.950;6.920;2023-02-28T08:40:59;8.40;92.70
3602;DHT22;1815;50.950;6.920;2023-02-28T08:43:25;9.50;91.70
3602;DHT22;1815;50.950;6.920;2023-02-28T08:45:52;10.50;90.40
3602;DHT22;1815;50.950;6.920;2023-02-28T08:48:18;11.40;82.20
3602;DHT22;1815;50.950;6.920;2023-02-28T08:50:43;12.00;73.80
3602;DHT22;1815;50.950;6.920;2023-02-28T08:53:09;12.50;66.60
3602;DHT22;1815;50.950;6.920;2023-02-28T08:55:35;13.30;72.50
3602;DHT22;1815;50.950;6.920;2023-02-28T08:58:00;13.90;70.10
3602;DHT22;1815;50.950;6.920;2023-02-28T09:00:27;14.40;67.10
3602;DHT22;1815;50.950;6.920;2023-02-28T09:02:52;14.80;60.60
3602;DHT22;1815;50.950;6.920;2023-02-28T09:05:20;15.10;56.70
3602;DHT22;1815;50.950;6.920;2023-02-28T09:07:45;15.30;58.30
3602;DHT22;1815;50.950;6.920;2023-02-28T09:10:11;15.70;55.60
3602;DHT22;1815;50.950;6.920;2023-02-28T09:12:37;15.90;50.60
3602;DHT22;1815;50.950;6.920;2023-02-28T09:15:03;16.10;49.30
3602;DHT22;1815;50.950;6.920;2023-02-28T09:17:29;16.00;49.80
3602;DHT22;1815;50.950;6.920;2023-02-28T09:19:55;16.20;51.70
3602;DHT22;1815;50.950;6.920;2023-02-28T09:22:20;16.50;52.40
3602;DHT22;1815;50.950;6.920;2023-02-28T09:24:46;16.70;48.90
3602;DHT22;1815;50.950;6.920;2023-02-28T09:27:12;16.70;45.20
3602;DHT22;1815;50.950;6.920;2023-02-28T09:29:38;16.70;45.50
3602;DHT22;1815;50.950;6.920;2023-02-28T09:32:04;16.60;45.70
3602;DHT22;1815;50.950;6.920;2023-02-28T09:34:32;16.50;43.80
3602;DHT22;1815;50.950;6.920;2023-02-28T09:36:57;16.50;40.10
3602;DHT22;1815;50.950;6.920;2023-02-28T09:39:23;16.30;43.70
3602;DHT22;1815;50.950;6.920;2023-02-28T09:41:54;16.60;41.90
3602;DHT22;1815;50.950;6.920;2023-02-28T09:44:28;16.60;39.30
3602;DHT22;1815;50.950;6.920;2023-02-28T09:47:01;16.60;42.60
3602;DHT22;1815;50.950;6.920;2023-02-28T09:49:39;16.80;41.90
3602;DHT22;1815;50.950;6.920;2023-02-28T09:52:14;16.70;42.10
3602;DHT22;1815;50.950;6.920;2023-02-28T09:54:47;16.90;42.40
3602;DHT22;1815;50.950;6.920;2023-02-28T09:57:44;17.10;42.90
3602;DHT22;1815;50.950;6.920;2023-02-28T10:00:18;17.50;40.80
3602;DHT22;1815;50.950;6.920;2023-02-28T10:02:55;17.80;40.30
3602;DHT22;1815;50.950;6.920;2023-02-28T10:05:27;17.70;42.60
3602;DHT22;1815;50.950;6.920;2023-02-28T10:10:43;17.90;42.10
3602;DHT22;1815;50.950;6.920;2023-02-28T10:13:17;17.80;35.90
3602;DHT22;1815;50.950;6.920;2023-02-28T10:15:47;17.60;38.80
3602;DHT22;1815;50.950;6.920;2023-02-28T10:25:28;17.40;34.80
3602;DHT22;1815;50.950;6.920;2023-02-28T10:28:13;17.30;38.50
3602;DHT22;1815;50.950;6.920;2023-02-28T10:30:51;17.20;37.50
3602;DHT22;1815;50.950;6.920;2023-02-28T10:33:26;17.00;38.40
3602;DHT22;1815;50.950;6.920;2023-02-28T10:35:53;16.70;37.50
3602;DHT22;1815;50.950;6.920;2023-02-28T10:38:28;16.30;35.50
3602;DHT22;1815;50.950;6.920;2023-02-28T10:41:11;15.80;35.90
3602;DHT22;1815;50.950;6.920;2023-02-28T10:43:39;15.70;37.20
3602;DHT22;1815;50.950;6.920;2023-02-28T10:46:13;15.70;36.30
3602;DHT22;1815;50.950;6.920;2023-02-28T10:49:19;15.30;36.40
3602;DHT22;1815;50.950;6.920;2023-02-28T10:51:47;15.10;36.00
3602;DHT22;1815;50.950;6.920;2023-02-28T10:54:33;15.00;38.20
3602;DHT22;1815;50.950;6.920;2023-02-28T10:57:22;15.00;38.00
3602;DHT22;1815;50.950;6.920;2023-02-28T10:59:53;14.90;37.20
3602;DHT22;1815;50.950;6.920;2023-02-28T11:02:35;14.90;39.80
3602;DHT22;1815;50.950;6.920;2023-02-28T11:05:02;14.90;39.10
3602;DHT22;1815;50.950;6.920;2023-02-28T11:07:28;15.00;38.60
3602;DHT22;1815;50.950;6.920;2023-02-28T11:09:55;15.10;40.10
3602;DHT22;1815;50.950;6.920;2023-02-28T11:12:40;15.10;37.50
3602;DHT22;1815;50.950;6.920;2023-02-28T11:15:23;15.20;40.30
3602;DHT22;1815;50.950;6.920;2023-02-28T11:17:56;14.90;34.80
3602;DHT22;1815;50.950;6.920;2023-02-28T11:20:28;15.00;37.40
3602;DHT22;1815;50.950;6.920;2023-02-28T11:23:00;14.80;36.40
3602;DHT22;1815;50.950;6.920;2023-02-28T11:25:29;14.60;36.60
3602;DHT22;1815;50.950;6.920;2023-02-28T11:28:01;14.50;38.20
3602;DHT22;1815;50.950;6.920;2023-02-28T11:30:29;14.70;39.50
3602;DHT22;1815;50.950;6.920;2023-02-28T11:32:58;14.90;39.40
3602;DHT22;1815;50.950;6.920;2023-02-28T11:38:00;15.40;39.50
3602;DHT22;1815;50.950;6.920;2023-02-28T11:40:41;15.40;39.20
3602;DHT22;1815;50.950;6.920;2023-02-28T11:43:18;15.40;38.60
3602;DHT22;1815;50.950;6.920;2023-02-28T11:54:04;15.10;37.50
3602;DHT22;1815;50.950;6.920;2023-02-28T11:56:57;15.10;39.40
3602;DHT22;1815;50.950;6.920;2023-02-28T11:59:55;15.00;38.70
3602;DHT22;1815;50.950;6.920;2023-02-28T12:02:52;14.90;38.30
3602;DHT22;1815;50.950;6.920;2023-02-28T12:05:41;15.00;40.00
3602;DHT22;1815;50.950;6.920;2023-02-28T12:08:47;15.10;40.50
3602;DHT22;1815;50.950;6.920;2023-02-28T12:14:22;15.20;37.60
3602;DHT22;1815;50.950;6.920;2023-02-28T12:16:58;15.30;40.00
3602;DHT22;1815;50.950;6.920;2023-02-28T12:20:09;15.10;37.20
3602;DHT22;1815;50.950;6.920;2023-02-28T12:28:22;14.90;39.20
3602;DHT22;1815;50.950;6.920;2023-02-28T12:31:15;14.60;36.20
3602;DHT22;1815;50.950;6.920;2023-02-28T12:33:46;14.40;36.30
3602;DHT22;1815;50.950;6.920;2023-02-28T12:36:17;14.20;37.70
3602;DHT22;1815;50.950;6.920;2023-02-28T12:39:07;14.10;38.50
3602;DHT22;1815;50.950;6.920;2023-02-28T12:41:58;13.90;37.70
3602;DHT22;1815;50.950;6.920;2023-02-28T12:44:32;13.60;37.40
3602;DHT22;1815;50.950;6.920;2023-02-28T12:47:02;13.50;38.60
3602;DHT22;1815;50.950;6.920;2023-02-28T12:49:38;13.30;38.00
3602;DHT22;1815;50.950;6.920;2023-02-28T12:52:05;12.70;35.10
3602;DHT22;1815;50.950;6.920;2023-02-28T12:54:34;12.40;35.80
3602;DHT22;1815;50.950;6.920;2023-02-28T13:00:35;11.60;35.40
3602;DHT22;1815;50.950;6.920;2023-02-28T13:09:11;10.20;36.00
3602;DHT22;1815;50.950;6.920;2023-02-28T13:11:46;9.90;37.20
3602;DHT22;1815;50.950;6.920;2023-02-28T13:19:27;9.10;37.80
3602;DHT22;1815;50.950;6.920;2023-02-28T13:21:55;8.90;38.10
3602;DHT22;1815;50.950;6.920;2023-02-28T13:24:52;8.80;38.40
3602;DHT22;1815;50.950;6.920;2023-02-28T13:27:35;8.70;38.40
3602;DHT22;1815;50.950;6.920;2023-02-28T13:38:38;8.10;39.20
3602;DHT22;1815;50.950;6.920;2023-02-28T13:44:21;8.00;39.30
3602;DHT22;1815;50.950;6.920;2023-02-28T14:07:58;8.10;40.30
3602;DHT22;1815;50.950;6.920;2023-02-28T14:10:35;8.10;40.40
3602;DHT22;1815;50.950;6.920;2023-02-28T14:16:00;8.10;40.50
3602;DHT22;1815;50.950;6.920;2023-02-28T14:20:59;8.10;40.80
3602;DHT22;1815;50.950;6.920;2023-02-28T14:26:16;8.00;40.70
3602;DHT22;1815;50.950;6.920;2023-02-28T14:28:51;8.10;41.20
3602;DHT22;1815;50.950;6.920;2023-02-28T14:32:10;8.10;41.30
3602;DHT22;1815;50.950;6.920;2023-02-28T14:37:15;8.10;41.50
3602;DHT22;1815;50.950;6.920;2023-02-28T14:39:44;8.10;41.40
3602;DHT22;1815;50.950;6.920;2023-02-28T14:42:33;8.20;41.60
3602;DHT22;1815;50.950;6.920;2023-02-28T14:45:00;8.20;41.70
3602;DHT22;1815;50.950;6.920;2023-02-28T14:47:34;8.20;41.90
3602;DHT22;1815;50.950;6.920;2023-02-28T14:50:02;8.20;41.90
3602;DHT22;1815;50.950;6.920;2023-02-28T14:52:32;8.30;42.00
3602;DHT22;1815;50.950;6.920;2023-02-28T14:54:59;8.20;42.00
3602;DHT22;1815;50.950;6.920;2023-02-28T14:57:32;8.30;42.10
3602;DHT22;1815;50.950;6.920;2023-02-28T15:00:09;8.20;41.70
3602;DHT22;1815;50.950;6.920;2023-02-28T15:02:37;8.20;41.50
3602;DHT22;1815;50.950;6.920;2023-02-28T15:07:36;8.20;41.70
3602;DHT22;1815;50.950;6.920;2023-02-28T15:10:09;8.20;41.80
3602;DHT22;1815;50.950;6.920;2023-02-28T15:12:36;8.20;41.60
3602;DHT22;1815;50.950;6.920;2023-02-28T15:15:02;8.20;41.90
3602;DHT22;1815;50.950;6.920;2023-02-28T15:17:29;8.20;42.00
3602;DHT22;1815;50.950;6.920;2023-02-28T15:19:55;8.20;42.00
3602;DHT22;1815;50.950;6.920;2023-02-28T15:22:40;8.10;41.10
3602;DHT22;1815;50.950;6.920;2023-02-28T15:25:13;8.20;41.70
3602;DHT22;1815;50.950;6.920;2023-02-28T15:27:45;8.20;41.90
3602;DHT22;1815;50.950;6.920;2023-02-28T15:30:31;8.10;41.80
3602;DHT22;1815;50.950;6.920;2023-02-28T15:35:38;8.20;42.30
3602;DHT22;1815;50.950;6.920;2023-02-28T15:38:25;8.30;42.40
3602;DHT22;1815;50.950;6.920;2023-02-28T15:40:57;8.30;42.30
3602;DHT22;1815;50.950;6.920;2023-02-28T15:43:37;8.30;42.50
3602;DHT22;1815;50.950;6.920;2023-02-28T15:46:08;8.30;42.30
3602;DHT22;1815;50.950;6.920;2023-02-28T15:48:43;8.30;42.30
3602;DHT22;1815;50.950;6.920;2023-02-28T15:51:20;8.30;42.50
3602;DHT22;1815;50.950;6.920;2023-02-28T15:53:59;8.30;42.60
3602;DHT22;1815;50.950;6.920;2023-02-28T15:56:28;8.30;42.70
3602;DHT22;1815;50.950;6.920;2023-02-28T15:58:59;8.30;42.60
3602;DHT22;1815;50.950;6.920;2023-02-28T16:01:35;8.30;42.80
3602;DHT22;1815;50.950;6.920;2023-02-28T16:04:03;8.30;42.80
3602;DHT22;1815;50.950;6.920;2023-02-28T16:06:39;8.30;42.90
3602;DHT22;1815;50.950;6.920;2023-02-28T16:09:08;8.30;43.00
3602;DHT22;1815;50.950;6.920;2023-02-28T16:11:38;8.30;43.00
3602;DHT22;1815;50.950;6.920;2023-02-28T16:14:05;8.30;43.10
3602;DHT22;1815;50.950;6.920;2023-02-28T16:16:31;8.30;43.20
3602;DHT22;1815;50.950;6.920;2023-02-28T16:18:57;8.30;43.20
3602;DHT22;1815;50.950;6.920;2023-02-28T16:21:25;8.20;43.10
3602;DHT22;1815;50.950;6.920;2023-02-28T16:23:50;8.20;43.20
3602;DHT22;1815;50.950;6.920;2023-02-28T16:26:22;8.20;43.30
3602;DHT22;1815;50.950;6.920;2023-02-28T16:28:48;8.20;43.30
3602;DHT22;1815;50.950;6.920;2023-02-28T16:31:15;8.10;43.30
3602;DHT22;1815;50.950;6.920;2023-02-28T16:33:43;8.00;43.20
3602;DHT22;1815;50.950;6.920;2023-02-28T16:37:02;8.00;43.30
3602;DHT22;1815;50.950;6.920;2023-02-28T16:39:21;8.00;43.30
3602;DHT22;1815;50.950;6.920;2023-02-28T16:41:47;8.00;43.40
3602;DHT22;1815;50.950;6.920;2023-02-28T16:44:30;7.90;43.40
3602;DHT22;1815;50.950;6.920;2023-02-28T16:46:59;7.90;43.50
3602;DHT22;1815;50.950;6.920;2023-02-28T16:49:25;7.90;43.50
3602;DHT22;1815;50.950;6.920;2023-02-28T16:51:50;7.80;43.40
3602;DHT22;1815;50.950;6.920;2023-02-28T16:54:16;7.70;43.50
3602;DHT22;1815;50.950;6.920;2023-02-28T16:56:45;7.70;43.50
3602;DHT22;1815;50.950;6.920;2023-02-28T16:59:11;7.70;43.60
3602;DHT22;1815;50.950;6.920;2023-02-28T17:01:37;7.60;43.60
3602;DHT22;1815;50.950;6.920;2023-02-28T17:04:03;7.60;43.70
3602;DHT22;1815;50.950;6.920;2023-02-28T17:06:30;7.50;43.70
3602;DHT22;1815;50.950;6.920;2023-02-28T17:08:57;7.50;43.80
3602;DHT22;1815;50.950;6.920;2023-02-28T17:11:23;7.40;43.70
3602;DHT22;1815;50.950;6.920;2023-02-28T17:13:50;7.40;43.90
3602;DHT22;1815;50.950;6.920;2023-02-28T17:16:26;7.30;43.90
3602;DHT22;1815;50.950;6.920;2023-02-28T17:18:54;7.30;44.00
3602;DHT22;1815;50.950;6.920;2023-02-28T17:21:22;7.20;44.00
3602;DHT22;1815;50.950;6.920;2023-02-28T17:23:47;7.20;44.10
3602;DHT22;1815;50.950;6.920;2023-02-28T17:26:18;7.10;44.10
3602;DHT22;1815;50.950;6.920;2023-02-28T17:28:46;7.10;44.20
3602;DHT22;1815;50.950;6.920;2023-02-28T17:31:12;7.00;44.30
3602;DHT22;1815;50.950;6.920;2023-02-28T17:33:39;7.00;44.40
3602;DHT22;1815;50.950;6.920;2023-02-28T17:36:06;6.90;44.50
3602;DHT22;1815;50.950;6.920;2023-02-28T17:38:32;6.90;44.60
3602;DHT22;1815;50.950;6.920;2023-02-28T17:40:57;6.80;44.60
3602;DHT22;1815;50.950;6.920;2023-02-28T17:43:25;6.80;44.60
3602;DHT22;1815;50.950;6.920;2023-02-28T17:45:51;6.80;44.70
3602;DHT22;1815;50.950;6.920;2023-02-28T17:48:17;6.70;44.80
3602;DHT22;1815;50.950;6.920;2023-02-28T17:50:43;6.70;44.80
3602;DHT22;1815;50.950;6.920;2023-02-28T17:53:08;6.60;44.90
3602;DHT22;1815;50.950;6.920;2023-02-28T17:55:35;6.60;45.00
3602;DHT22;1815;50.950;6.920;2023-02-28T17:58:03;6.60;45.10
3602;DHT22;1815;50.950;6.920;2023-02-28T18:00:29;6.60;45.10
3602;DHT22;1815;50.950;6.920;2023-02-28T18:02:55;6.50;45.20
3602;DHT22;1815;50.950;6.920;2023-02-28T18:05:21;6.50;45.50
3602;DHT22;1815;50.950;6.920;2023-02-28T18:07:47;6.40;45.40
3602;DHT22;1815;50.950;6.920;2023-02-28T18:10:15;6.40;46.10
3602;DHT22;1815;50.950;6.920;2023-02-28T18:12:45;6.40;46.30
3602;DHT22;1815;50.950;6.920;2023-02-28T18:15:11;6.30;46.20
3602;DHT22;1815;50.950;6.920;2023-02-28T18:17:37;6.30;46.10
3602;DHT22;1815;50.950;6.920;2023-02-28T18:20:03;6.20;46.10
3602;DHT22;1815;50.950;6.920;2023-02-28T18:22:30;6.20;46.30
3602;DHT22;1815;50.950;6.920;2023-02-28T18:24:55;6.20;46.80
3602;DHT22;1815;50.950;6.920;2023-02-28T18:27:21;6.10;46.50
3602;DHT22;1815;50.950;6.920;2023-02-28T18:29:47;6.10;46.90
3602;DHT22;1815;50.950;6.920;2023-02-28T18:32:15;6.00;47.60
3602;DHT22;1815;50.950;6.920;2023-02-28T18:34:41;6.00;47.40
3602;DHT22;1815;50.950;6.920;2023-02-28T18:37:06;5.90;47.20
3602;DHT22;1815;50.950;6.920;2023-02-28T18:39:32;5.90;47.90
3602;DHT22;1815;50.950;6.920;2023-02-28T18:41:58;5.80;47.50
3602;DHT22;1815;50.950;6.920;2023-02-28T18:44:23;5.80;47.40
3602;DHT22;1815;50.950;6.920;2023-02-28T18:46:50;5.70;48.60
3602;DHT22;1815;50.950;6.920;2023-02-28T18:49:16;5.70;48.10